sensor_id;sensor_type;location;lat;lon;timestamp;temperature;humidity
37642;DHT22;23486;51.956;5.888;2023-10-31T00:01:03;10.80;99.90
37642;DHT22;23486;51.956;5.888;2023-10-31T00:03:28;10.80;99.90
37642;DHT22;23486;51.956;5.888;2023-10-31T00:05:54;10.70;99.90
37642;DHT22;23486;51.956;5.888;2023-10-31T00:08:19;10.60;99.90
37642;DHT22;23486;51.956;5.888;2023-10-31T00:10:45;10.50;99.90
37642;DHT22;23486;51.956;5.888;2023-10-31T00:13:11;10.40;99.90
37642;DHT22;23486;51.956;5.888;2023-10-31T00:15:37;10.40;99.90
37642;DHT22;23486;51.956;5.888;2023-10-31T00:18:03;10.40;99.90
37642;DHT22;23486;51.956;5.888;2023-10-31T00:20:28;10.40;99.90
37642;DHT22;23486;51.956;5.888;2023-10-31T00:22:54;10.40;99.90
37642;DHT22;23486;51.956;5.888;2023-10-31T00:25:20;10.40;99.90
37642;DHT22;23486;51.956;5.888;2023-10-31T00:27:46;10.40;99.90
37642;DHT22;23486;51.956;5.888;2023-10-31T00:30:11;10.30;99.90
37642;DHT22;23486;51.956;5.888;2023-10-31T00:32:37;10.30;99.90
37642;DHT22;23486;51.956;5.888;2023-10-31T00:35:03;10.30;99.90
37642;DHT22;23486;51.956;5.888;2023-10-31T00:37:28;10.30;99.90
37642;DHT22;23486;51.956;5.888;2023-10-31T00:39:54;10.40;99.90
37642;DHT22;23486;51.956;5.888;2023-10-31T00:42:19;10.30;99.90
37642;DHT22;23486;51.956;5.888;2023-10-31T00:44:45;10.30;99.90
37642;DHT22;23486;51.956;5.888;2023-10-31T00:47:10;10.40;99.90
37642;DHT22;23486;51.956;5.888;2023-10-31T00:49:36;10.30;99.90
37642;DHT22;23486;51.956;5.888;2023-10-31T00:52:02;10.30;99.90
37642;DHT22;23486;51.956;5.888;2023-10-31T00:54:27;10.30;99.90
37642;DHT22;23486;51.956;5.888;2023-10-31T00:56:53;10.30;99.90
37642;DHT22;23486;51.956;5.888;2023-10-31T00:59:18;10.30;99.90
37642;DHT22;23486;51.956;5.888;2023-10-31T01:01:44;10.20;99.90
37642;DHT22;23486;51.956;5.888;2023-10-31T01:04:10;10.20;99.90
37642;DHT22;23486;51.956;5.888;2023-10-31T01:06:42;10.20;99.90
37642;DHT22;23486;51.956;5.888;2023-10-31T01:09:09;10.30;99.90
37642;DHT22;23486;51.956;5.888;2023-10-31T01:11:35;10.30;99.90
37642;DHT22;23486;51.956;5.888;2023-10-31T01:14:01;10.40;99.90
37642;DHT22;23486;51.956;5.888;2023-10-31T01:16:26;10.30;99.90
37642;DHT22;23486;51.956;5.888;2023-10-31T01:18:52;10.30;99.90
37642;DHT22;23486;51.956;5.888;2023-10-31T01:21:18;10.30;99.90
37642;DHT22;23486;51.956;5.888;2023-10-31T01:23:43;10.30;99.90
37642;DHT22;23486;51.956;5.888;2023-10-31T01:26:09;10.30;99.90
37642;DHT22;23486;51.956;5.888;2023-10-31T01:28:34;10.30;99.90
37642;DHT22;23486;51.956;5.888;2023-10-31T01:31:00;10.30;99.90
37642;DHT22;23486;51.956;5.888;2023-10-31T01:33:25;10.30;99.90
37642;DHT22;23486;51.956;5.888;2023-10-31T01:35:51;10.30;99.90
37642;DHT22;23486;51.956;5.888;2023-10-31T01:38:17;10.30;99.90
37642;DHT22;23486;51.956;5.888;2023-10-31T01:40:42;10.30;99.90
37642;DHT22;23486;51.956;5.888;2023-10-31T01:43:09;10.40;99.90
37642;DHT22;23486;51.956;5.888;2023-10-31T01:45:35;10.40;99.90
37642;DHT22;23486;51.956;5.888;2023-10-31T01:48:01;10.40;99.90
37642;DHT22;23486;51.956;5.888;2023-10-31T01:50:26;10.40;99.90
37642;DHT22;23486;51.956;5.888;2023-10-31T01:52:53;10.30;99.90
37642;DHT22;23486;51.956;5.888;2023-10-31T01:55:18;10.40;99.90
37642;DHT22;23486;51.956;5.888;2023-10-31T01:57:45;10.40;99.90
37642;DHT22;23486;51.956;5.888;2023-10-31T02:00:13;10.40;99.90
37642;DHT22;23486;51.956;5.888;2023-10-31T02:02:41;10.50;99.90
37642;DHT22;23486;51.956;5.888;2023-10-31T02:05:09;10.50;99.90
37642;DHT22;23486;51.956;5.888;2023-10-31T02:07:35;10.50;99.90
37642;DHT22;23486;51.956;5.888;2023-10-31T02:10:00;10.50;99.90
37642;DHT22;23486;51.956;5.888;2023-10-31T02:12:36;10.50;99.90
37642;DHT22;23486;51.956;5.888;2023-10-31T02:15:02;10.50;99.90
37642;DHT22;23486;51.956;5.888;2023-10-31T02:17:28;10.50;99.90
37642;DHT22;23486;51.956;5.888;2023-10-31T02:19:54;10.50;99.90
37642;DHT22;23486;51.956;5.888;2023-10-31T02:22:21;10.60;99.90
37642;DHT22;23486;51.956;5.888;2023-10-31T02:24:47;10.50;99.90
37642;DHT22;23486;51.956;5.888;2023-10-31T02:27:12;10.50;99.90
37642;DHT22;23486;51.956;5.888;2023-10-31T02:29:39;10.50;99.90
37642;DHT22;23486;51.956;5.888;2023-10-31T02:32:05;10.50;99.90
37642;DHT22;23486;51.956;5.888;2023-10-31T02:34:31;10.50;99.90
37642;DHT22;23486;51.956;5.888;2023-10-31T02:36:57;10.50;99.90
37642;DHT22;23486;51.956;5.888;2023-10-31T02:39:22;10.50;99.90
37642;DHT22;23486;51.956;5.888;2023-10-31T02:41:48;10.50;99.90
37642;DHT22;23486;51.956;5.888;2023-10-31T02:44:15;10.60;99.90
37642;DHT22;23486;51.956;5.888;2023-10-31T02:46:41;10.50;99.90
37642;DHT22;23486;51.956;5.888;2023-10-31T02:49:06;10.50;99.90
37642;DHT22;23486;51.956;5.888;2023-10-31T02:51:34;10.50;99.90
37642;DHT22;23486;51.956;5.888;2023-10-31T02:53:59;10.60;99.90
37642;DHT22;23486;51.956;5.888;2023-10-31T02:56:25;10.50;99.90
37642;DHT22;23486;51.956;5.888;2023-10-31T02:58:51;10.60;99.90
37642;DHT22;23486;51.956;5.888;2023-10-31T03:01:16;10.60;99.90
37642;DHT22;23486;51.956;5.888;2023-10-31T03:03:43;10.60;99.90
37642;DHT22;23486;51.956;5.888;2023-10-31T03:06:08;10.60;99.90
37642;DHT22;23486;51.956;5.888;2023-10-31T03:08:34;10.60;99.90
37642;DHT22;23486;51.956;5.888;2023-10-31T03:11:00;10.60;99.90
37642;DHT22;23486;51.956;5.888;2023-10-31T03:13:25;10.60;99.90
37642;DHT22;23486;51.956;5.888;2023-10-31T03:15:51;10.60;99.90
37642;DHT22;23486;51.956;5.888;2023-10-31T03:18:16;10.60;99.90
37642;DHT22;23486;51.956;5.888;2023-10-31T03:20:45;10.60;99.90
37642;DHT22;23486;51.956;5.888;2023-10-31T03:23:14;10.50;99.90
37642;DHT22;23486;51.956;5.888;2023-10-31T03:25:40;10.50;99.90
37642;DHT22;23486;51.956;5.888;2023-10-31T03:28:18;10.50;99.90
37642;DHT22;23486;51.956;5.888;2023-10-31T03:30:46;10.50;99.90
37642;DHT22;23486;51.956;5.888;2023-10-31T03:33:12;10.50;99.90
37642;DHT22;23486;51.956;5.888;2023-10-31T03:35:37;10.50;99.90
37642;DHT22;23486;51.956;5.888;2023-10-31T03:38:03;10.50;99.90
37642;DHT22;23486;51.956;5.888;2023-10-31T03:40:28;10.50;99.90
37642;DHT22;23486;51.956;5.888;2023-10-31T03:42:54;10.60;99.90
37642;DHT22;23486;51.956;5.888;2023-10-31T03:45:20;10.60;99.90
37642;DHT22;23486;51.956;5.888;2023-10-31T03:47:45;10.50;99.90
37642;DHT22;23486;51.956;5.888;2023-10-31T03:50:11;10.60;99.90
37642;DHT22;23486;51.956;5.888;2023-10-31T03:52:36;10.60;99.90
37642;DHT22;23486;51.956;5.888;2023-10-31T03:55:02;10.60;99.90
37642;DHT22;23486;51.956;5.888;2023-10-31T03:57:28;10.60;99.90
37642;DHT22;23486;51.956;5.888;2023-10-31T03:59:53;10.60;99.90
37642;DHT22;23486;51.956;5.888;2023-10-31T04:02:19;10.60;99.90
37642;DHT22;23486;51.956;5.888;2023-10-31T04:04:44;10.60;99.90
37642;DHT22;23486;51.956;5.888;2023-10-31T04:07:10;10.60;99.90
37642;DHT22;23486;51.956;5.888;2023-10-31T04:09:35;10.60;99.90
37642;DHT22;23486;51.956;5.888;2023-10-31T04:12:01;10.60;99.90
37642;DHT22;23486;51.956;5.888;2023-10-31T04:14:27;10.60;99.90
37642;DHT22;23486;51.956;5.888;2023-10-31T04:16:52;10.50;99.90
37642;DHT22;23486;51.956;5.888;2023-10-31T04:19:18;10.60;99.90
37642;DHT22;23486;51.956;5.888;2023-10-31T04:21:43;10.50;99.90
37642;DHT22;23486;51.956;5.888;2023-10-31T04:24:09;10.50;99.90
37642;DHT22;23486;51.956;5.888;2023-10-31T04:26:34;10.50;99.90
37642;DHT22;23486;51.956;5.888;2023-10-31T04:29:00;10.40;99.90
37642;DHT22;23486;51.956;5.888;2023-10-31T04:31:26;10.40;99.90
37642;DHT22;23486;51.956;5.888;2023-10-31T04:33:51;10.40;99.90
37642;DHT22;23486;51.956;5.888;2023-10-31T04:36:17;10.40;99.90
37642;DHT22;23486;51.956;5.888;2023-10-31T04:38:42;10.40;99.90
37642;DHT22;23486;51.956;5.888;2023-10-31T04:41:08;10.30;99.90
37642;DHT22;23486;51.956;5.888;2023-10-31T04:43:35;10.30;99.90
37642;DHT22;23486;51.956;5.888;2023-10-31T04:46:00;10.30;99.90
37642;DHT22;23486;51.956;5.888;2023-10-31T04:48:26;10.30;99.90
37642;DHT22;23486;51.956;5.888;2023-10-31T04:50:51;10.40;99.90
37642;DHT22;23486;51.956;5.888;2023-10-31T04:53:17;10.30;99.90
37642;DHT22;23486;51.956;5.888;2023-10-31T04:55:43;10.40;99.90
37642;DHT22;23486;51.956;5.888;2023-10-31T04:58:08;10.30;99.90
37642;DHT22;23486;51.956;5.888;2023-10-31T05:00:34;10.40;99.90
37642;DHT22;23486;51.956;5.888;2023-10-31T05:02:59;10.40;99.90
37642;DHT22;23486;51.956;5.888;2023-10-31T05:05:26;10.40;99.90
37642;DHT22;23486;51.956;5.888;2023-10-31T05:07:52;10.40;99.90
37642;DHT22;23486;51.956;5.888;2023-10-31T05:10:17;10.30;99.90
37642;DHT22;23486;51.956;5.888;2023-10-31T05:12:43;10.40;99.90
37642;DHT22;23486;51.956;5.888;2023-10-31T05:15:09;10.30;99.90
37642;DHT22;23486;51.956;5.888;2023-10-31T05:17:35;10.40;99.90
37642;DHT22;23486;51.956;5.888;2023-10-31T05:20:00;10.30;99.90
37642;DHT22;23486;51.956;5.888;2023-10-31T05:22:26;10.40;99.90
37642;DHT22;23486;51.956;5.888;2023-10-31T05:24:51;10.40;99.90
37642;DHT22;23486;51.956;5.888;2023-10-31T05:27:17;10.30;99.90
37642;DHT22;23486;51.956;5.888;2023-10-31T05:29:43;10.30;99.90
37642;DHT22;23486;51.956;5.888;2023-10-31T05:32:08;10.30;99.90
37642;DHT22;23486;51.956;5.888;2023-10-31T05:34:34;10.30;99.90
37642;DHT22;23486;51.956;5.888;2023-10-31T05:37:00;10.30;99.90
37642;DHT22;23486;51.956;5.888;2023-10-31T05:39:25;10.30;99.90
37642;DHT22;23486;51.956;5.888;2023-10-31T05:41:51;10.30;99.90
37642;DHT22;23486;51.956;5.888;2023-10-31T05:44:17;10.30;99.90
37642;DHT22;23486;51.956;5.888;2023-10-31T05:46:43;10.20;99.90
37642;DHT22;23486;51.956;5.888;2023-10-31T05:49:09;10.20;99.90
37642;DHT22;23486;51.956;5.888;2023-10-31T05:51:35;10.30;99.90
37642;DHT22;23486;51.956;5.888;2023-10-31T05:54:01;10.20;99.90
37642;DHT22;23486;51.956;5.888;2023-10-31T05:56:27;10.20;99.90
37642;DHT22;23486;51.956;5.888;2023-10-31T05:58:52;10.20;99.90
37642;DHT22;23486;51.956;5.888;2023-10-31T06:01:18;10.20;99.90
37642;DHT22;23486;51.956;5.888;2023-10-31T06:03:44;10.10;99.90
37642;DHT22;23486;51.956;5.888;2023-10-31T06:06:10;10.10;99.90
37642;DHT22;23486;51.956;5.888;2023-10-31T06:08:37;10.10;99.90
37642;DHT22;23486;51.956;5.888;2023-10-31T06:11:03;10.10;99.90
37642;DHT22;23486;51.956;5.888;2023-10-31T06:13:29;10.00;99.90
37642;DHT22;23486;51.956;5.888;2023-10-31T06:15:57;10.00;99.90
37642;DHT22;23486;51.956;5.888;2023-10-31T06:18:26;10.00;99.90
37642;DHT22;23486;51.956;5.888;2023-10-31T06:20:52;10.00;99.90
37642;DHT22;23486;51.956;5.888;2023-10-31T06:23:18;9.90;99.90
37642;DHT22;23486;51.956;5.888;2023-10-31T06:25:43;9.80;99.90
37642;DHT22;23486;51.956;5.888;2023-10-31T06:28:09;9.80;99.90
37642;DHT22;23486;51.956;5.888;2023-10-31T06:30:34;9.80;99.90
37642;DHT22;23486;51.956;5.888;2023-10-31T06:33:00;9.80;99.90
37642;DHT22;23486;51.956;5.888;2023-10-31T06:35:26;9.80;99.90
37642;DHT22;23486;51.956;5.888;2023-10-31T06:37:53;9.80;99.90
37642;DHT22;23486;51.956;5.888;2023-10-31T06:40:19;9.90;99.90
37642;DHT22;23486;51.956;5.888;2023-10-31T06:42:45;9.80;99.90
37642;DHT22;23486;51.956;5.888;2023-10-31T06:45:11;10.00;99.90
37642;DHT22;23486;51.956;5.888;2023-10-31T06:47:36;10.00;99.90
37642;DHT22;23486;51.956;5.888;2023-10-31T06:50:02;10.00;99.90
37642;DHT22;23486;51.956;5.888;2023-10-31T06:52:28;10.00;99.90
37642;DHT22;23486;51.956;5.888;2023-10-31T06:54:53;10.00;99.90
37642;DHT22;23486;51.956;5.888;2023-10-31T06:57:19;10.10;99.90
37642;DHT22;23486;51.956;5.888;2023-10-31T06:59:45;10.10;99.90
37642;DHT22;23486;51.956;5.888;2023-10-31T07:02:11;10.10;99.90
37642;DHT22;23486;51.956;5.888;2023-10-31T07:04:37;10.10;99.90
37642;DHT22;23486;51.956;5.888;2023-10-31T07:07:02;10.10;99.90
37642;DHT22;23486;51.956;5.888;2023-10-31T07:09:28;10.10;99.90
37642;DHT22;23486;51.956;5.888;2023-10-31T07:11:54;10.10;99.90
37642;DHT22;23486;51.956;5.888;2023-10-31T07:14:20;10.10;99.90
37642;DHT22;23486;51.956;5.888;2023-10-31T07:16:45;10.10;99.90
37642;DHT22;23486;51.956;5.888;2023-10-31T07:19:11;10.10;99.90
37642;DHT22;23486;51.956;5.888;2023-10-31T07:21:37;10.10;99.90
37642;DHT22;23486;51.956;5.888;2023-10-31T07:24:02;10.10;99.90
37642;DHT22;23486;51.956;5.888;2023-10-31T07:26:28;10.10;99.90
37642;DHT22;23486;51.956;5.888;2023-10-31T07:28:54;10.10;99.90
37642;DHT22;23486;51.956;5.888;2023-10-31T07:31:20;10.10;99.90
37642;DHT22;23486;51.956;5.888;2023-10-31T07:33:45;10.10;99.90
37642;DHT22;23486;51.956;5.888;2023-10-31T07:36:11;10.20;99.90
37642;DHT22;23486;51.956;5.888;2023-10-31T07:38:37;10.20;99.90
37642;DHT22;23486;51.956;5.888;2023-10-31T07:41:03;10.20;99.90
37642;DHT22;23486;51.956;5.888;2023-10-31T07:43:29;10.20;99.90
37642;DHT22;23486;51.956;5.888;2023-10-31T07:45:54;10.20;99.90
37642;DHT22;23486;51.956;5.888;2023-10-31T07:48:20;10.20;99.90
37642;DHT22;23486;51.956;5.888;2023-10-31T07:50:45;10.20;99.90
37642;DHT22;23486;51.956;5.888;2023-10-31T07:53:11;10.20;99.90
37642;DHT22;23486;51.956;5.888;2023-10-31T07:55:37;10.20;99.90
37642;DHT22;23486;51.956;5.888;2023-10-31T07:58:02;10.30;99.90
37642;DHT22;23486;51.956;5.888;2023-10-31T08:00:28;10.40;99.90
37642;DHT22;23486;51.956;5.888;2023-10-31T08:02:53;10.40;99.90
37642;DHT22;23486;51.956;5.888;2023-10-31T08:05:19;10.50;99.90
37642;DHT22;23486;51.956;5.888;2023-10-31T08:07:44;10.60;99.90
37642;DHT22;23486;51.956;5.888;2023-10-31T08:10:10;10.60;99.90
37642;DHT22;23486;51.956;5.888;2023-10-31T08:12:36;10.70;99.90
37642;DHT22;23486;51.956;5.888;2023-10-31T08:15:02;10.70;99.90
37642;DHT22;23486;51.956;5.888;2023-10-31T08:17:27;10.70;99.90
37642;DHT22;23486;51.956;5.888;2023-10-31T08:19:53;10.80;99.90
37642;DHT22;23486;51.956;5.888;2023-10-31T08:22:18;10.80;99.90
37642;DHT22;23486;51.956;5.888;2023-10-31T08:24:44;10.80;99.90
37642;DHT22;23486;51.956;5.888;2023-10-31T08:27:10;11.00;99.90
37642;DHT22;23486;51.956;5.888;2023-10-31T08:29:36;11.10;99.90
37642;DHT22;23486;51.956;5.888;2023-10-31T08:32:02;11.20;99.90
37642;DHT22;23486;51.956;5.888;2023-10-31T08:34:27;11.20;99.90
37642;DHT22;23486;51.956;5.888;2023-10-31T08:36:53;11.20;99.90
37642;DHT22;23486;51.956;5.888;2023-10-31T08:39:19;11.40;99.90
37642;DHT22;23486;51.956;5.888;2023-10-31T08:41:55;11.40;99.90
37642;DHT22;23486;51.956;5.888;2023-10-31T08:44:21;11.40;99.90
37642;DHT22;23486;51.956;5.888;2023-10-31T08:46:46;11.40;99.90
37642;DHT22;23486;51.956;5.888;2023-10-31T08:49:13;11.40;99.90
37642;DHT22;23486;51.956;5.888;2023-10-31T08:51:38;11.50;99.90
37642;DHT22;23486;51.956;5.888;2023-10-31T08:54:04;11.50;99.90
37642;DHT22;23486;51.956;5.888;2023-10-31T08:56:29;11.60;99.90
37642;DHT22;23486;51.956;5.888;2023-10-31T08:58:55;11.60;99.90
37642;DHT22;23486;51.956;5.888;2023-10-31T09:01:21;11.60;99.90
37642;DHT22;23486;51.956;5.888;2023-10-31T09:03:46;11.70;99.90
37642;DHT22;23486;51.956;5.888;2023-10-31T09:06:12;11.60;99.90
37642;DHT22;23486;51.956;5.888;2023-10-31T09:08:37;11.60;99.90
37642;DHT22;23486;51.956;5.888;2023-10-31T09:11:04;11.60;99.90
37642;DHT22;23486;51.956;5.888;2023-10-31T09:13:30;11.60;99.90
37642;DHT22;23486;51.956;5.888;2023-10-31T09:15:58;11.60;99.90
37642;DHT22;23486;51.956;5.888;2023-10-31T09:18:23;11.70;99.90
37642;DHT22;23486;51.956;5.888;2023-10-31T09:20:49;11.80;99.90
37642;DHT22;23486;51.956;5.888;2023-10-31T09:23:15;11.90;99.90
37642;DHT22;23486;51.956;5.888;2023-10-31T09:25:43;12.10;99.90
37642;DHT22;23486;51.956;5.888;2023-10-31T09:28:08;12.20;99.90
37642;DHT22;23486;51.956;5.888;2023-10-31T09:30:34;12.30;99.90
37642;DHT22;23486;51.956;5.888;2023-10-31T09:32:59;12.40;99.90
37642;DHT22;23486;51.956;5.888;2023-10-31T09:35:25;12.50;99.90
37642;DHT22;23486;51.956;5.888;2023-10-31T09:37:52;12.50;99.90
37642;DHT22;23486;51.956;5.888;2023-10-31T09:40:18;12.50;99.90
37642;DHT22;23486;51.956;5.888;2023-10-31T09:42:47;12.40;99.90
37642;DHT22;23486;51.956;5.888;2023-10-31T09:45:13;12.50;99.90
37642;DHT22;23486;51.956;5.888;2023-10-31T09:47:39;12.60;99.90
37642;DHT22;23486;51.956;5.888;2023-10-31T09:50:06;12.60;99.90
37642;DHT22;23486;51.956;5.888;2023-10-31T09:52:34;12.70;99.90
37642;DHT22;23486;51.956;5.888;2023-10-31T09:55:01;12.60;99.90
37642;DHT22;23486;51.956;5.888;2023-10-31T09:57:27;12.60;99.90
37642;DHT22;23486;51.956;5.888;2023-10-31T09:59:53;12.60;99.90
37642;DHT22;23486;51.956;5.888;2023-10-31T10:02:19;12.60;99.90
37642;DHT22;23486;51.956;5.888;2023-10-31T10:04:44;12.60;99.90
37642;DHT22;23486;51.956;5.888;2023-10-31T10:07:15;12.60;99.90
37642;DHT22;23486;51.956;5.888;2023-10-31T10:09:42;12.60;99.90
37642;DHT22;23486;51.956;5.888;2023-10-31T10:12:12;12.70;99.90
37642;DHT22;23486;51.956;5.888;2023-10-31T10:14:38;12.80;99.90
37642;DHT22;23486;51.956;5.888;2023-10-31T10:17:23;12.90;99.90
37642;DHT22;23486;51.956;5.888;2023-10-31T10:20:10;12.90;99.90
37642;DHT22;23486;51.956;5.888;2023-10-31T10:22:37;13.00;99.90
37642;DHT22;23486;51.956;5.888;2023-10-31T10:25:08;13.00;99.90
37642;DHT22;23486;51.956;5.888;2023-10-31T10:27:34;13.00;99.90
37642;DHT22;23486;51.956;5.888;2023-10-31T10:30:02;13.00;99.90
37642;DHT22;23486;51.956;5.888;2023-10-31T10:32:28;13.00;99.90
37642;DHT22;23486;51.956;5.888;2023-10-31T10:34:54;13.10;99.90
37642;DHT22;23486;51.956;5.888;2023-10-31T10:37:20;13.20;99.90
37642;DHT22;23486;51.956;5.888;2023-10-31T10:39:48;13.30;99.90
37642;DHT22;23486;51.956;5.888;2023-10-31T10:42:17;13.40;99.90
37642;DHT22;23486;51.956;5.888;2023-10-31T10:44:44;13.40;99.90
37642;DHT22;23486;51.956;5.888;2023-10-31T10:47:12;13.30;99.90
37642;DHT22;23486;51.956;5.888;2023-10-31T10:49:41;13.40;99.90
37642;DHT22;23486;51.956;5.888;2023-10-31T10:52:27;13.40;99.90
37642;DHT22;23486;51.956;5.888;2023-10-31T10:55:12;13.30;99.90
37642;DHT22;23486;51.956;5.888;2023-10-31T11:00:11;13.30;99.90
37642;DHT22;23486;51.956;5.888;2023-10-31T11:02:41;13.40;99.90
37642;DHT22;23486;51.956;5.888;2023-10-31T11:05:09;13.40;99.90
37642;DHT22;23486;51.956;5.888;2023-10-31T11:07:36;13.40;99.90
37642;DHT22;23486;51.956;5.888;2023-10-31T11:10:03;13.40;99.90
37642;DHT22;23486;51.956;5.888;2023-10-31T11:12:30;13.40;99.90
37642;DHT22;23486;51.956;5.888;2023-10-31T11:15:01;13.50;99.90
37642;DHT22;23486;51.956;5.888;2023-10-31T11:17:33;13.50;99.90
37642;DHT22;23486;51.956;5.888;2023-10-31T11:20:00;13.60;99.90
37642;DHT22;23486;51.956;5.888;2023-10-31T11:25:12;13.80;99.90
37642;DHT22;23486;51.956;5.888;2023-10-31T11:27:38;14.00;99.90
37642;DHT22;23486;51.956;5.888;2023-10-31T11:30:29;14.00;99.90
37642;DHT22;23486;51.956;5.888;2023-10-31T11:32:58;14.10;99.90
37642;DHT22;23486;51.956;5.888;2023-10-31T11:35:24;14.20;99.90
37642;DHT22;23486;51.956;5.888;2023-10-31T11:38:04;14.20;99.90
37642;DHT22;23486;51.956;5.888;2023-10-31T11:40:32;14.30;99.90
37642;DHT22;23486;51.956;5.888;2023-10-31T11:42:58;14.20;99.90
37642;DHT22;23486;51.956;5.888;2023-10-31T11:47:53;14.10;99.90
37642;DHT22;23486;51.956;5.888;2023-10-31T11:50:20;13.90;99.90
37642;DHT22;23486;51.956;5.888;2023-10-31T11:53:07;13.80;99.90
37642;DHT22;23486;51.956;5.888;2023-10-31T11:55:40;13.70;99.90
37642;DHT22;23486;51.956;5.888;2023-10-31T11:58:20;13.60;99.90
37642;DHT22;23486;51.956;5.888;2023-10-31T12:00:48;13.70;99.90
37642;DHT22;23486;51.956;5.888;2023-10-31T12:03:19;13.60;99.90
37642;DHT22;23486;51.956;5.888;2023-10-31T12:05:52;13.60;99.90
37642;DHT22;23486;51.956;5.888;2023-10-31T12:08:25;13.50;99.90
37642;DHT22;23486;51.956;5.888;2023-10-31T12:10:51;13.50;99.90
37642;DHT22;23486;51.956;5.888;2023-10-31T12:13:17;13.60;99.90
37642;DHT22;23486;51.956;5.888;2023-10-31T12:15:52;13.60;99.90
37642;DHT22;23486;51.956;5.888;2023-10-31T12:18:18;13.50;99.90
37642;DHT22;23486;51.956;5.888;2023-10-31T12:21:02;13.40;99.90
37642;DHT22;23486;51.956;5.888;2023-10-31T12:23:28;13.30;99.90
37642;DHT22;23486;51.956;5.888;2023-10-31T12:25:54;13.30;99.90
37642;DHT22;23486;51.956;5.888;2023-10-31T12:28:21;13.20;99.90
37642;DHT22;23486;51.956;5.888;2023-10-31T12:30:48;13.20;99.90
37642;DHT22;23486;51.956;5.888;2023-10-31T12:33:14;13.20;99.90
37642;DHT22;23486;51.956;5.888;2023-10-31T12:35:40;13.30;99.90
37642;DHT22;23486;51.956;5.888;2023-10-31T12:38:07;13.30;99.90
37642;DHT22;23486;51.956;5.888;2023-10-31T12:40:35;13.30;99.90
37642;DHT22;23486;51.956;5.888;2023-10-31T12:43:00;13.40;99.90
37642;DHT22;23486;51.956;5.888;2023-10-31T12:45:28;13.40;99.90
37642;DHT22;23486;51.956;5.888;2023-10-31T12:48:05;13.50;99.90
37642;DHT22;23486;51.956;5.888;2023-10-31T12:50:49;13.70;99.90
37642;DHT22;23486;51.956;5.888;2023-10-31T12:53:23;13.90;99.90
37642;DHT22;23486;51.956;5.888;2023-10-31T12:55:49;14.00;99.90
37642;DHT22;23486;51.956;5.888;2023-10-31T12:58:20;13.90;99.90
37642;DHT22;23486;51.956;5.888;2023-10-31T13:00:46;13.80;99.90
37642;DHT22;23486;51.956;5.888;2023-10-31T13:03:12;13.80;99.90
37642;DHT22;23486;51.956;5.888;2023-10-31T13:05:37;13.70;99.90
37642;DHT22;23486;51.956;5.888;2023-10-31T13:08:18;13.70;99.90
37642;DHT22;23486;51.956;5.888;2023-10-31T13:10:44;13.80;99.90
37642;DHT22;23486;51.956;5.888;2023-10-31T13:13:10;13.80;99.90
37642;DHT22;23486;51.956;5.888;2023-10-31T13:15:39;13.90;99.90
37642;DHT22;23486;51.956;5.888;2023-10-31T13:18:05;14.00;99.90
37642;DHT22;23486;51.956;5.888;2023-10-31T13:20:30;14.20;99.90
37642;DHT22;23486;51.956;5.888;2023-10-31T13:22:57;14.30;99.90
37642;DHT22;23486;51.956;5.888;2023-10-31T13:25:23;14.30;99.90
37642;DHT22;23486;51.956;5.888;2023-10-31T13:27:48;14.40;99.90
37642;DHT22;23486;51.956;5.888;2023-10-31T13:30:18;14.30;99.90
37642;DHT22;23486;51.956;5.888;2023-10-31T13:32:44;14.20;99.90
37642;DHT22;23486;51.956;5.888;2023-10-31T13:35:10;14.10;99.90
37642;DHT22;23486;51.956;5.888;2023-10-31T13:37:38;14.00;99.90
37642;DHT22;23486;51.956;5.888;2023-10-31T13:40:05;13.90;99.90
37642;DHT22;23486;51.956;5.888;2023-10-31T13:42:30;13.90;99.90
37642;DHT22;23486;51.956;5.888;2023-10-31T13:44:56;13.80;99.90
37642;DHT22;23486;51.956;5.888;2023-10-31T13:47:22;13.70;99.90
37642;DHT22;23486;51.956;5.888;2023-10-31T13:49:47;13.60;99.90
37642;DHT22;23486;51.956;5.888;2023-10-31T13:52:14;13.50;99.90
37642;DHT22;23486;51.956;5.888;2023-10-31T13:54:39;13.50;99.90
37642;DHT22;23486;51.956;5.888;2023-10-31T13:57:05;13.50;99.90
37642;DHT22;23486;51.956;5.888;2023-10-31T13:59:30;13.50;99.90
37642;DHT22;23486;51.956;5.888;2023-10-31T14:01:57;13.40;99.90
37642;DHT22;23486;51.956;5.888;2023-10-31T14:04:22;13.40;99.90
37642;DHT22;23486;51.956;5.888;2023-10-31T14:06:48;13.40;99.90
37642;DHT22;23486;51.956;5.888;2023-10-31T14:09:14;13.40;99.90
37642;DHT22;23486;51.956;5.888;2023-10-31T14:11:40;13.40;99.90
37642;DHT22;23486;51.956;5.888;2023-10-31T14:14:06;13.30;99.90
37642;DHT22;23486;51.956;5.888;2023-10-31T14:16:33;13.30;99.90
37642;DHT22;23486;51.956;5.888;2023-10-31T14:18:59;13.20;99.90
37642;DHT22;23486;51.956;5.888;2023-10-31T14:21:25;13.20;99.90
37642;DHT22;23486;51.956;5.888;2023-10-31T14:23:51;13.20;99.90
37642;DHT22;23486;51.956;5.888;2023-10-31T14:26:20;13.30;99.90
37642;DHT22;23486;51.956;5.888;2023-10-31T14:28:46;13.20;99.90
37642;DHT22;23486;51.956;5.888;2023-10-31T14:31:12;13.20;99.90
37642;DHT22;23486;51.956;5.888;2023-10-31T14:33:37;13.10;99.90
37642;DHT22;23486;51.956;5.888;2023-10-31T14:36:03;13.10;99.90
37642;DHT22;23486;51.956;5.888;2023-10-31T14:38:29;13.10;99.90
37642;DHT22;23486;51.956;5.888;2023-10-31T14:40:54;13.10;99.90
37642;DHT22;23486;51.956;5.888;2023-10-31T14:43:20;13.10;99.90
37642;DHT22;23486;51.956;5.888;2023-10-31T14:45:45;13.10;99.90
37642;DHT22;23486;51.956;5.888;2023-10-31T14:48:11;13.10;99.90
37642;DHT22;23486;51.956;5.888;2023-10-31T14:50:36;13.10;99.90
37642;DHT22;23486;51.956;5.888;2023-10-31T14:53:04;13.10;99.90
37642;DHT22;23486;51.956;5.888;2023-10-31T14:55:30;13.20;99.90
37642;DHT22;23486;51.956;5.888;2023-10-31T14:57:56;13.20;99.90
37642;DHT22;23486;51.956;5.888;2023-10-31T15:00:21;13.20;99.90
37642;DHT22;23486;51.956;5.888;2023-10-31T15:02:47;13.20;99.90
37642;DHT22;23486;51.956;5.888;2023-10-31T15:05:12;13.20;99.90
37642;DHT22;23486;51.956;5.888;2023-10-31T15:07:38;13.20;99.90
37642;DHT22;23486;51.956;5.888;2023-10-31T15:10:06;13.20;99.90
37642;DHT22;23486;51.956;5.888;2023-10-31T15:12:32;13.20;99.90
37642;DHT22;23486;51.956;5.888;2023-10-31T15:14:58;13.10;99.90
37642;DHT22;23486;51.956;5.888;2023-10-31T15:17:24;13.10;99.90
37642;DHT22;23486;51.956;5.888;2023-10-31T15:19:49;13.10;99.90
37642;DHT22;23486;51.956;5.888;2023-10-31T15:22:15;13.10;99.90
37642;DHT22;23486;51.956;5.888;2023-10-31T15:24:40;13.10;99.90
37642;DHT22;23486;51.956;5.888;2023-10-31T15:27:07;13.00;99.90
37642;DHT22;23486;51.956;5.888;2023-10-31T15:29:33;13.00;99.90
37642;DHT22;23486;51.956;5.888;2023-10-31T15:31:58;13.00;99.90
37642;DHT22;23486;51.956;5.888;2023-10-31T15:34:24;12.90;99.90